This is the latest recevied weather packets stored in our database for station/object DO7ZT-10. If no packets are shown the sender has not sent any weather packets the latest 10 day(s).
| Time | Temp. | Humidity | Pressure | Rain* | Wind** | Luminosity | Snow |
|---|---|---|---|---|---|---|---|
| 1787970713 | 15° C | 88% | 1013.1 hPa | - | - | - | - |
| 1787969813 | 15° C | 89% | 1013.6 hPa | - | - | - | - |
| 1787968913 | 15° C | 88% | 1014.1 hPa | - | - | - | - |
| 1787968013 | 15.56° C | 89% | 1014.1 hPa | - | - | - | - |
| 1787967113 | 15.56° C | 89% | 1014.3 hPa | - | - | - | - |
| 1787966213 | 15.56° C | 89% | 1014 hPa | - | - | - | - |
| 1787965313 | 15.56° C | 89% | 1014.4 hPa | - | - | - | - |
| 1787964413 | 16.11° C | 89% | 1014.5 hPa | - | - | - | - |
| 1787963513 | 16.67° C | 90% | 1014.5 hPa | - | - | - | - |
| 1787962613 | 16.67° C | 89% | 1014.2 hPa | - | - | - | - |
| 1787961713 | 17.22° C | 89% | 1013.7 hPa | - | - | - | - |
| 1787960813 | 17.22° C | 88% | 1013.9 hPa | - | - | - | - |
| 1787959912 | 17.78° C | 91% | 1014.1 hPa | - | - | - | - |
| 1787959012 | 17.78° C | 92% | 1014.1 hPa | - | - | - | - |
| 1787958112 | 17.78° C | 91% | 1013.9 hPa | - | - | - | - |
| 1787957211 | 17.78° C | 90% | 1014.1 hPa | - | - | - | - |
| 1787956311 | 17.78° C | 89% | 1014.2 hPa | - | - | - | - |
| 1787955411 | 18.89° C | 80% | 1014.2 hPa | - | - | - | - |
| 1787954511 | 20.56° C | 69% | 1013.8 hPa | - | - | - | - |
| 1787953611 | 20.56° C | 70% | 1013.5 hPa | - | - | - | - |
| 1787952711 | 20.56° C | 71% | 1013.6 hPa | - | - | - | - |
| 1787951811 | 20.56° C | 70% | 1013.6 hPa | - | - | - | - |
| 1787950911 | 20° C | 77% | 1013.8 hPa | - | - | - | - |
| 1787950011 | 20° C | 79% | 1013.7 hPa | - | - | - | - |
| 1787949111 | 19.44° C | 81% | 1013.4 hPa | - | - | - | - |
* Rain since midnight (hover to see other rain measurements)
** Current wind speed in m/s (hover to see current wind gust speed)